^^
Datos históricos de la estación: Murcia-Puente Tocinos
Diario Informe para Noviembre 17, 2021 Unidades:  Métrico    Ingés   Ambas
Diario Semanal Mensual Anual
  Máxima: Mínima: Promedio:
Temperatura: 18.1 °C 8.7 °C 13.2 °C
Punto de rocio: 10.8 °C 5.3 °C 7.9 °C
Humedad: 83% 50% 71%
Velocidad viento: 11.9km/h 0km/h 5.7km/h
Racha viento: 22.2km/h - -
Viento- - SSE
Presión: 1021.5 hPa 1017.4 hPa -
Precipitación: 0.0 mm    
 
 
Tabla de datos para Noviembre 17, 2021
Hora Temperatura Punto de rocio Presión Viento Velocidad viento Racha viento Humedad Intensidad lluvia(por hora) Nubes
00:04 11.7 °C 7.4 °C 1017.8 hPa Sur 5.8 km/h 13 km/h 75% 0.0 mm
00:09 11.6 °C 7.3 °C 1017.8 hPa SSO 6.1 km/h 9.3 km/h 75% 0.0 mm
00:14 11.6 °C 7.4 °C 1017.8 hPa SO 6.9 km/h 11.1 km/h 75.2% 0.0 mm
00:19 11.6 °C 7.5 °C 1017.8 hPa SSO 6.6 km/h 7.6 km/h 76% 0.0 mm
00:24 11.7 °C 7.5 °C 1017.8 hPa Sur 5.8 km/h 8.4 km/h 75.8% 0.0 mm
00:29 11.7 °C 7.4 °C 1017.8 hPa SSO 5.5 km/h 8.7 km/h 75.1% 0.0 mm
00:34 11.7 °C 7.4 °C 1017.8 hPa SSO 5 km/h 9.5 km/h 75% 0.0 mm
00:39 11.6 °C 7.3 °C 1017.8 hPa Sur 5.2 km/h 9.5 km/h 75% 0.0 mm
00:44 11.6 °C 7.3 °C 1017.7 hPa SSO 5.8 km/h 9.5 km/h 75% 0.0 mm
00:49 11.6 °C 7.3 °C 1017.7 hPa SSO 5.9 km/h 9.3 km/h 75% 0.0 mm
00:54 11.6 °C 7.3 °C 1017.7 hPa SSO 6.4 km/h 10 km/h 75% 0.0 mm
00:59 11.5 °C 7.3 °C 1017.6 hPa SSO 6.6 km/h 10 km/h 75% 0.0 mm
01:04 11.4 °C 7.2 °C 1017.6 hPa SSO 6.9 km/h 9.5 km/h 75% 0.0 mm
01:09 11.4 °C 7.1 °C 1017.6 hPa SSO 6.6 km/h 9.5 km/h 75% 0.0 mm
01:14 11.4 °C 7.1 °C 1017.5 hPa SSO 5.8 km/h 8.4 km/h 75% 0.0 mm
01:19 11.4 °C 7.2 °C 1017.5 hPa SO 5.8 km/h 8.4 km/h 75.6% 0.0 mm
01:24 11.3 °C 7.2 °C 1017.6 hPa SO 5.8 km/h 6.9 km/h 76% 0.0 mm
01:29 11.3 °C 7.2 °C 1017.6 hPa SO 5.4 km/h 9.5 km/h 76% 0.0 mm
01:34 11.3 °C 7.3 °C 1017.6 hPa SO 4.7 km/h 8.7 km/h 76.5% 0.0 mm
01:39 11.3 °C 7.4 °C 1017.6 hPa SO 4.8 km/h 9.3 km/h 77% 0.0 mm
01:44 11.2 °C 7.3 °C 1017.5 hPa SSO 5 km/h 10.3 km/h 77% 0.0 mm
01:49 11.2 °C 7.3 °C 1017.5 hPa Sur 5.4 km/h 11.1 km/h 77% 0.0 mm
01:54 11 °C 7 °C 1017.5 hPa Sur 6.4 km/h 10 km/h 76.3% 0.0 mm
01:59 10.8 °C 7 °C 1017.5 hPa Sur 6.6 km/h 11.1 km/h 77% 0.0 mm
02:04 10.8 °C 6.9 °C 1017.5 hPa Sur 6.9 km/h 11.1 km/h 77% 0.0 mm
02:09 10.7 °C 6.9 °C 1017.6 hPa Sur 7.1 km/h 13 km/h 77.5% 0.0 mm
02:14 10.7 °C 7 °C 1017.6 hPa SSO 7.6 km/h 11.9 km/h 78% 0.0 mm
02:19 10.7 °C 7 °C 1017.6 hPa SSO 7.6 km/h 11.9 km/h 78% 0.0 mm
02:24 10.7 °C 7 °C 1017.6 hPa SSO 7.6 km/h 11.1 km/h 78% 0.0 mm
02:29 10.7 °C 7 °C 1017.6 hPa Sur 7.6 km/h 11.1 km/h 78% 0.0 mm
02:34 10.7 °C 6.9 °C 1017.6 hPa SSO 7.6 km/h 11.1 km/h 77.5% 0.0 mm
02:39 10.7 °C 6.8 °C 1017.6 hPa SSO 7.8 km/h 13 km/h 77% 0.0 mm
02:44 10.7 °C 6.9 °C 1017.6 hPa SSO 8.4 km/h 13 km/h 77.3% 0.0 mm
02:49 10.7 °C 7 °C 1017.6 hPa SSO 8.1 km/h 13 km/h 78% 0.0 mm
02:54 10.7 °C 7 °C 1017.6 hPa SSO 7.6 km/h 13 km/h 78% 0.0 mm
02:59 10.7 °C 7 °C 1017.5 hPa SSO 7.6 km/h 11.9 km/h 78% 0.0 mm
03:04 10.7 °C 7 °C 1017.5 hPa SSO 7.6 km/h 9.3 km/h 78% 0.0 mm
03:09 10.7 °C 7 °C 1017.5 hPa SO 7.2 km/h 11.1 km/h 78% 0.0 mm
03:14 10.7 °C 7 °C 1017.5 hPa SSO 6.4 km/h 13.7 km/h 78% 0.0 mm
03:19 10.7 °C 7.2 °C 1017.5 hPa SO 7.1 km/h 16.7 km/h 78.9% 0.0 mm
03:24 10.6 °C 7.1 °C 1017.5 hPa SO 8.7 km/h 14.8 km/h 79% 0.0 mm
03:29 10.6 °C 7.1 °C 1017.5 hPa OSO 8.7 km/h 13 km/h 79% 0.0 mm
03:34 10.6 °C 7.1 °C 1017.5 hPa SO 8.7 km/h 9.3 km/h 79% 0.0 mm
03:39 10.5 °C 7 °C 1017.6 hPa SO 7.8 km/h 8.4 km/h 78.9% 0.0 mm
03:44 10.4 °C 6.7 °C 1017.6 hPa SO 5.8 km/h 8.4 km/h 78% 0.0 mm
03:49 10.4 °C 6.7 °C 1017.6 hPa SO 5.8 km/h 7.6 km/h 78% 0.0 mm
03:54 10.4 °C 6.7 °C 1017.6 hPa SO 5.8 km/h 7.6 km/h 77.9% 0.0 mm
03:59 10.3 °C 6.5 °C 1017.5 hPa OSO 5.5 km/h 8.4 km/h 77% 0.0 mm
04:04 10.3 °C 6.4 °C 1017.5 hPa OSO 5 km/h 10 km/h 76.8% 0.0 mm
04:09 10.2 °C 6.1 °C 1017.5 hPa SO 5.2 km/h 11.1 km/h 76% 0.0 mm
04:14 10.1 °C 6.1 °C 1017.5 hPa SO 5.8 km/h 10.3 km/h 76% 0.0 mm
04:19 10.1 °C 6.1 °C 1017.5 hPa SO 6.3 km/h 11.1 km/h 76% 0.0 mm
04:24 10.1 °C 6.1 °C 1017.5 hPa SO 7.6 km/h 11.1 km/h 76% 0.0 mm
04:29 10 °C 6.1 °C 1017.5 hPa SO 7.6 km/h 13 km/h 76.6% 0.0 mm
04:34 10 °C 6.2 °C 1017.5 hPa SO 7.6 km/h 14 km/h 77% 0.0 mm
04:39 10 °C 6.2 °C 1017.5 hPa SO 7.8 km/h 14.8 km/h 77% 0.0 mm
04:44 10 °C 6.2 °C 1017.4 hPa SO 8.4 km/h 11.1 km/h 77% 0.0 mm
04:49 9.9 °C 6.1 °C 1017.4 hPa SO 7.8 km/h 10 km/h 77% 0.0 mm
04:54 9.9 °C 6.1 °C 1017.6 hPa SSO 6.4 km/h 7.4 km/h 77% 0.0 mm
04:59 9.7 °C 5.7 °C 1017.6 hPa SE 6 km/h 7.6 km/h 76.2% 0.0 mm
05:04 9.3 °C 5.4 °C 1017.6 hPa SSE 4.7 km/h 9.5 km/h 76.8% 0.0 mm
05:09 8.9 °C 5.3 °C 1017.6 hPa Sur 5 km/h 9.5 km/h 78.2% 0.0 mm
05:14 8.7 °C 5.4 °C 1017.5 hPa Sur 5.8 km/h 7.6 km/h 79.3% 0.0 mm
05:19 8.7 °C 5.4 °C 1017.5 hPa SSO 5.6 km/h 8.4 km/h 80.3% 0.0 mm
05:24 8.7 °C 5.6 °C 1017.5 hPa SO 5 km/h 8.4 km/h 81% 0.0 mm
05:29 8.8 °C 5.7 °C 1017.5 hPa SO 5 km/h 9.5 km/h 81% 0.0 mm
05:34 8.9 °C 5.8 °C 1017.5 hPa SSO 5 km/h 9.5 km/h 81% 0.0 mm
05:39 8.9 °C 5.6 °C 1017.6 hPa SO 5.4 km/h 11.9 km/h 80.1% 0.0 mm
05:44 9 °C 5.7 °C 1017.6 hPa SO 6.4 km/h 13 km/h 80% 0.0 mm
05:49 9 °C 5.8 °C 1017.6 hPa SO 7.2 km/h 11.9 km/h 80% 0.0 mm
05:54 9.1 °C 5.8 °C 1017.6 hPa SO 8.7 km/h 11.1 km/h 80% 0.0 mm
05:59 9.1 °C 5.7 °C 1017.4 hPa SSO 7.9 km/h 8.4 km/h 79.1% 0.0 mm
06:04 9.1 °C 5.7 °C 1017.4 hPa OSO 6.4 km/h 7.6 km/h 79% 0.0 mm
06:09 9.2 °C 5.7 °C 1017.7 hPa SO 5.6 km/h 6.9 km/h 79% 0.0 mm
06:14 9.2 °C 5.7 °C 1017.7 hPa SSE 3.9 km/h 7.4 km/h 79% 0.0 mm
06:19 9.2 °C 5.6 °C 1017.7 hPa SE 4.2 km/h 7.6 km/h 78.4% 0.0 mm
06:24 8.9 °C 5.3 °C 1017.7 hPa Sur 5 km/h 8.7 km/h 78.5% 0.0 mm
06:29 8.7 °C 5.4 °C 1017.7 hPa SSO 5.5 km/h 11.1 km/h 79.8% 0.0 mm
06:34 8.7 °C 5.4 °C 1017.7 hPa SO 6.4 km/h 8.7 km/h 80% 0.0 mm
06:39 8.7 °C 5.4 °C 1017.9 hPa SO 5.9 km/h 9.3 km/h 80% 0.0 mm
06:44 8.7 °C 5.5 °C 1017.9 hPa SO 4.7 km/h 8.4 km/h 80.2% 0.0 mm
06:49 8.8 °C 5.6 °C 1017.9 hPa SO 5 km/h 8.4 km/h 80% 0.0 mm
06:54 8.8 °C 5.6 °C 1017.9 hPa SO 5.8 km/h 8.4 km/h 80% 0.0 mm
06:59 8.8 °C 5.6 °C 1017.9 hPa SO 5.5 km/h 8.7 km/h 80% 0.0 mm
07:04 8.8 °C 5.6 °C 1017.9 hPa SO 5 km/h 9.5 km/h 80% 0.0 mm
07:09 8.9 °C 5.6 °C 1017.9 hPa SO 5.4 km/h 9.3 km/h 79.9% 0.0 mm
07:14 8.9 °C 5.4 °C 1017.8 hPa SO 6.4 km/h 10 km/h 79% 0.0 mm
07:19 8.9 °C 5.4 °C 1017.8 hPa OSO 6.1 km/h 5.6 km/h 79% 0.0 mm
07:24 8.9 °C 5.4 °C 1018.0 hPa OSO 5 km/h 5.8 km/h 79% 0.0 mm
07:29 8.9 °C 5.4 °C 1018.0 hPa SO 4.7 km/h 7.4 km/h 79% 0.0 mm
07:34 9 °C 5.4 °C 1018.0 hPa SO 3.9 km/h 7.6 km/h 78.3% 0.0 mm
07:39 9 °C 5.4 °C 1018.3 hPa SO 4.2 km/h 8.4 km/h 78% 0.0 mm
07:44 9 °C 5.3 °C 1018.3 hPa SSO 5 km/h 8.4 km/h 78% 0.0 mm
07:49 8.9 °C 5.3 °C 1018.3 hPa SSO 4.9 km/h 7.4 km/h 78% 0.0 mm
07:54 8.9 °C 5.4 °C 1018.5 hPa SO 4.7 km/h 9.5 km/h 78.9% 0.0 mm
07:59 8.9 °C 5.4 °C 1018.5 hPa OSO 4.8 km/h 9.3 km/h 79% 0.0 mm
08:04 8.9 °C 5.4 °C 1018.5 hPa SO 5 km/h 7.6 km/h 79% 0.0 mm
08:09 8.9 °C 5.3 °C 1018.7 hPa SO 4.9 km/h 8.4 km/h 78.3% 0.0 mm
08:14 8.9 °C 5.3 °C 1018.7 hPa SO 4.7 km/h 7.6 km/h 78.4% 0.0 mm
08:19 8.9 °C 5.4 °C 1018.7 hPa OSO 4.8 km/h 8.4 km/h 79% 0.0 mm
08:24 8.9 °C 5.4 °C 1018.9 hPa OSO 5 km/h 7.6 km/h 78.4% 0.0 mm
08:29 9.1 °C 5.4 °C 1018.9 hPa OSO 4.9 km/h 8.4 km/h 78% 0.0 mm
08:34 9.1 °C 5.4 °C 1018.9 hPa OSO 4.7 km/h 8.4 km/h 78% 0.0 mm
08:39 9.1 °C 5.5 °C 1019.0 hPa OSO 5 km/h 11.1 km/h 78% 0.0 mm
08:44 9.2 °C 5.5 °C 1019.0 hPa OSO 5.8 km/h 10.3 km/h 77.9% 0.0 mm
08:49 9.2 °C 5.4 °C 1019.0 hPa SO 6 km/h 11.9 km/h 77% 0.0 mm
08:54 9.3 °C 5.3 °C 1019.0 hPa SO 6.4 km/h 11.9 km/h 76.3% 0.0 mm
08:59 9.4 °C 5.4 °C 1018.9 hPa OSO 6.6 km/h 13 km/h 76% 0.0 mm
09:04 9.5 °C 5.3 °C 1018.9 hPa OSO 6.9 km/h 9.5 km/h 75.1% 0.0 mm
09:09 9.7 °C 5.4 °C 1019.0 hPa OSO 6.7 km/h 9.3 km/h 74.5% 0.0 mm
09:14 9.8 °C 5.4 °C 1019.0 hPa OSO 6.4 km/h 9.5 km/h 74% 0.0 mm
09:19 9.9 °C 5.4 °C 1019.0 hPa OSO 6.4 km/h 11.9 km/h 73.5% 0.0 mm
09:24 10 °C 5.4 °C 1019.1 hPa OSO 6.4 km/h 13 km/h 73% 0.0 mm
09:29 10.1 °C 5.5 °C 1019.1 hPa SO 6.8 km/h 9.5 km/h 73% 0.0 mm
09:34 10.2 °C 5.5 °C 1019.1 hPa OSO 7.6 km/h 10 km/h 72.6% 0.0 mm
09:39 10.3 °C 5.7 °C 1019.3 hPa OSO 7.1 km/h 9.5 km/h 72.7% 0.0 mm
09:44 10.5 °C 5.7 °C 1019.3 hPa SO 5.8 km/h 11.1 km/h 72.1% 0.0 mm
09:49 10.8 °C 5.9 °C 1019.3 hPa SO 6 km/h 9.3 km/h 72% 0.0 mm
09:54 11.1 °C 6.2 °C 1019.3 hPa SSO 6.4 km/h 10 km/h 71.9% 0.0 mm
09:59 11.4 °C 6.2 °C 1019.2 hPa SO 6.6 km/h 13.7 km/h 70.6% 0.0 mm
10:04 11.7 °C 6.4 °C 1019.2 hPa SSO 6.9 km/h 15.6 km/h 70.4% 0.0 mm
10:09 11.8 °C 6.5 °C 1019.3 hPa SSO 7.4 km/h 13 km/h 70% 0.0 mm
10:14 11.9 °C 6.6 °C 1019.3 hPa SO 8.4 km/h 14.8 km/h 70% 0.0 mm
10:19 12 °C 6.7 °C 1019.3 hPa SO 8.4 km/h 13 km/h 69.8% 0.0 mm
10:24 12.2 °C 6.6 °C 1019.4 hPa SO 8.7 km/h 13 km/h 69% 0.0 mm
10:29 12.3 °C 6.8 °C 1019.4 hPa SO 8.2 km/h 11.1 km/h 69.2% 0.0 mm
10:34 12.6 °C 6.9 °C 1019.4 hPa SSO 6.9 km/h 11.1 km/h 68.5% 0.0 mm
10:39 12.8 °C 6.9 °C 1019.6 hPa SSO 7.1 km/h 14.8 km/h 67.3% 0.0 mm
10:44 12.9 °C 6.9 °C 1019.6 hPa SSO 7.6 km/h 11.1 km/h 67% 0.0 mm
10:49 13 °C 7 °C 1019.6 hPa SSO 7.4 km/h 11.1 km/h 67% 0.0 mm
10:54 13.2 °C 7 °C 1019.8 hPa SSO 6.9 km/h 11.1 km/h 66.3% 0.0 mm
10:59 13.4 °C 7 °C 1019.8 hPa SSO 6.9 km/h 13.7 km/h 65.5% 0.0 mm
11:04 13.4 °C 7 °C 1019.8 hPa SO 6.9 km/h 13 km/h 65% 0.0 mm
11:09 13.5 °C 7.1 °C 1019.8 hPa SO 6.8 km/h 11.1 km/h 65% 0.0 mm
11:14 13.7 °C 7.2 °C 1019.7 hPa SSO 6.4 km/h 11.1 km/h 65% 0.0 mm
11:19 13.8 °C 7.2 °C 1019.7 hPa SSO 6.6 km/h 16.7 km/h 64.6% 0.0 mm
11:24 13.9 °C 7.1 °C 1019.7 hPa SO 6.9 km/h 15.6 km/h 63.6% 0.0 mm
11:29 14.1 °C 7.1 °C 1019.6 hPa OSO 7.4 km/h 14.8 km/h 62.9% 0.0 mm
11:34 14.2 °C 6.8 °C 1019.6 hPa OSO 8.4 km/h 20.4 km/h 61.3% 0.0 mm
11:39 14.3 °C 6.8 °C 1019.6 hPa OSO 9.4 km/h 20.4 km/h 61% 0.0 mm
11:44 14.4 °C 7 °C 1019.5 hPa Oeste 11.9 km/h 16.7 km/h 61% 0.0 mm
11:49 14.7 °C 7 °C 1019.5 hPa OSO 11.2 km/h 17.2 km/h 60% 0.0 mm
11:54 14.8 °C 7 °C 1019.6 hPa Oeste 9.5 km/h 18.5 km/h 59.3% 0.0 mm
11:59 14.9 °C 6.9 °C 1019.6 hPa OSO 8.9 km/h 13.7 km/h 59% 0.0 mm
12:04 14.9 °C 6.7 °C 1019.6 hPa OSO 7.6 km/h 13 km/h 58% 0.0 mm
12:09 15 °C 6.8 °C 1019.6 hPa SO 7.9 km/h 15.6 km/h 58% 0.0 mm
12:14 15.2 °C 7 °C 1019.4 hPa SO 8.7 km/h 13 km/h 58.2% 0.0 mm
12:19 15.4 °C 7 °C 1019.4 hPa OSO 8.3 km/h 13 km/h 57.1% 0.0 mm
12:24 15.7 °C 7.2 °C 1019.4 hPa SSE 7.6 km/h 11.9 km/h 56.9% 0.0 mm
12:29 15.9 °C 7 °C 1019.4 hPa SO 7.9 km/h 16.7 km/h 55.5% 0.0 mm
12:34 15.9 °C 7 °C 1019.4 hPa SSE 8.4 km/h 11.1 km/h 55.5% 0.0 mm
12:39 15.9 °C 7.1 °C 1019.4 hPa Sur 7.9 km/h 13.7 km/h 56% 0.0 mm
12:44 16 °C 7.2 °C 1019.2 hPa SSO 6.9 km/h 13.7 km/h 56% 0.0 mm
12:49 16.1 °C 7.1 °C 1019.2 hPa SSO 6.9 km/h 13 km/h 55.3% 0.0 mm
12:54 16.1 °C 7.1 °C 1019.2 hPa Sur 6.9 km/h 11.1 km/h 55% 0.0 mm
12:59 16.2 °C 7.1 °C 1019.2 hPa SSO 6.5 km/h 7.6 km/h 55% 0.0 mm
13:04 16.2 °C 7.2 °C 1019.2 hPa Sur 5.8 km/h 11.1 km/h 55% 0.0 mm
13:09 16.3 °C 7.2 °C 1019.2 hPa SSE 6.3 km/h 11.9 km/h 54.9% 0.0 mm
13:14 16.4 °C 7.3 °C 1019.0 hPa SSO 7.6 km/h 11.1 km/h 55% 0.0 mm
13:19 16.4 °C 7.1 °C 1019.0 hPa Sur 7.2 km/h 11.9 km/h 54.2% 0.0 mm
13:24 16.4 °C 7.3 °C 1019.0 hPa Sur 6.4 km/h 13 km/h 54.6% 0.0 mm
13:29 16.5 °C 7.2 °C 1018.9 hPa Sur 6.8 km/h 11.9 km/h 54.2% 0.0 mm
13:34 16.6 °C 7.3 °C 1018.9 hPa Sur 7.6 km/h 11.1 km/h 54.2% 0.0 mm
13:39 16.9 °C 7.4 °C 1018.9 hPa SSO 7.2 km/h 9.5 km/h 53.5% 0.0 mm
13:44 17.2 °C 7.5 °C 1018.7 hPa SSO 6.4 km/h 9.3 km/h 53% 0.0 mm
13:49 17.4 °C 7.4 °C 1018.7 hPa SO 6 km/h 9.5 km/h 51.9% 0.0 mm
13:54 17.5 °C 7.3 °C 1018.7 hPa OSO 5 km/h 8.4 km/h 51.1% 0.0 mm
13:59 17.7 °C 7.4 °C 1018.5 hPa SSO 4.9 km/h 7.4 km/h 51% 0.0 mm
14:04 17.9 °C 7.3 °C 1018.5 hPa OSO 4.7 km/h 7.6 km/h 50.1% 0.0 mm
14:09 17.9 °C 7.3 °C 1018.5 hPa OSO 4.4 km/h 5.6 km/h 50% 0.0 mm
14:14 18 °C 7.4 °C 1018.5 hPa Este 3.9 km/h 10 km/h 50% 0.0 mm
14:19 18 °C 7.4 °C 1018.5 hPa NE 4.2 km/h 11.1 km/h 50% 0.0 mm
14:24 17.9 °C 7.5 °C 1018.5 hPa NE 5 km/h 7.4 km/h 50.7% 0.0 mm
14:29 17.9 °C 7.6 °C 1018.4 hPa NE 5 km/h 14.8 km/h 51% 0.0 mm
14:34 18 °C 7.4 °C 1018.4 hPa SE 5 km/h 8.4 km/h 50.1% 0.0 mm
14:39 18 °C 7.7 °C 1018.4 hPa North 4.9 km/h 10 km/h 50.9% 0.0 mm
14:44 18.1 °C 7.8 °C 1018.3 hPa NE 4.7 km/h 13.7 km/h 51% 0.0 mm
14:49 17.9 °C 7.7 °C 1018.3 hPa Este 5.3 km/h 11.9 km/h 51% 0.0 mm
14:54 17.8 °C 7.5 °C 1018.3 hPa ESE 6.9 km/h 7.4 km/h 51% 0.0 mm
14:59 17.8 °C 7.5 °C 1018.3 hPa ESE 6.3 km/h 9.5 km/h 51% 0.0 mm
15:04 17.8 °C 7.6 °C 1018.3 hPa Este 5 km/h 9.3 km/h 51.4% 0.0 mm
15:09 17.8 °C 7.8 °C 1018.4 hPa NE 5 km/h 9.3 km/h 52% 0.0 mm
15:14 17.8 °C 7.8 °C 1018.4 hPa NNE 5 km/h 11.9 km/h 52% 0.0 mm
15:19 17.8 °C 7.8 °C 1018.4 hPa ENE 5.2 km/h 10 km/h 52% 0.0 mm
15:24 17.8 °C 7.8 °C 1018.4 hPa NE 5.8 km/h 10 km/h 52% 0.0 mm
15:29 17.8 °C 7.8 °C 1018.3 hPa NE 5.8 km/h 10.3 km/h 52% 0.0 mm
15:34 17.8 °C 7.8 °C 1018.3 hPa NE 5.8 km/h 13.7 km/h 52% 0.0 mm
15:39 17.8 °C 8 °C 1018.3 hPa NE 6.3 km/h 13 km/h 52.6% 0.0 mm
15:44 17.8 °C 8.1 °C 1018.2 hPa NE 7.6 km/h 14.8 km/h 53% 0.0 mm
15:49 17.9 °C 8.2 °C 1018.2 hPa ENE 7.8 km/h 14 km/h 53% 0.0 mm
15:54 18 °C 8.2 °C 1018.3 hPa NE 8.4 km/h 22.2 km/h 53% 0.0 mm
15:59 17.8 °C 8.3 °C 1018.3 hPa NE 9.6 km/h 18.5 km/h 53.6% 0.0 mm
16:04 17.8 °C 8.4 °C 1018.3 hPa NE 11.9 km/h 16.7 km/h 54.3% 0.0 mm
16:09 17.9 °C 8.7 °C 1018.4 hPa NE 11.3 km/h 18.3 km/h 54.8% 0.0 mm
16:14 17.9 °C 8.6 °C 1018.4 hPa ENE 10 km/h 18.5 km/h 54.5% 0.0 mm
16:19 17.9 °C 8.8 °C 1018.4 hPa NE 9.6 km/h 18 km/h 55.4% 0.0 mm
16:24 17.8 °C 9 °C 1018.4 hPa NE 8.7 km/h 18.5 km/h 56.6% 0.0 mm
16:29 17.7 °C 9.3 °C 1018.4 hPa NE 9.1 km/h 15.6 km/h 58.1% 0.0 mm
16:34 17.6 °C 9.5 °C 1018.4 hPa ENE 10 km/h 18 km/h 59.2% 0.0 mm
16:39 17.4 °C 9.6 °C 1018.5 hPa NE 9.8 km/h 18.5 km/h 60.2% 0.0 mm
16:44 17.4 °C 9.9 °C 1018.5 hPa ENE 9.5 km/h 13.7 km/h 61.3% 0.0 mm
16:49 17.4 °C 10 °C 1018.5 hPa NE 9 km/h 13 km/h 62% 0.0 mm
16:54 17.3 °C 9.9 °C 1018.6 hPa NE 7.6 km/h 14.8 km/h 62% 0.0 mm
16:59 17.2 °C 9.9 °C 1018.6 hPa NE 7.6 km/h 13 km/h 62.1% 0.0 mm
17:04 17.2 °C 10.1 °C 1018.6 hPa NE 7.6 km/h 13 km/h 63% 0.0 mm
17:09 17.3 °C 10.2 °C 1018.7 hPa NE 7.8 km/h 16.7 km/h 63% 0.0 mm
17:14 17.2 °C 10.3 °C 1018.7 hPa NE 8.4 km/h 13 km/h 64% 0.0 mm
17:19 17.2 °C 10.4 °C 1018.7 hPa NE 8 km/h 12.2 km/h 64.3% 0.0 mm
17:24 17.2 °C 10.6 °C 1018.8 hPa NE 6.9 km/h 13.7 km/h 65% 0.0 mm
17:29 17.1 °C 10.4 °C 1018.8 hPa NE 7.4 km/h 13 km/h 65% 0.0 mm
17:34 17 °C 10.5 °C 1018.8 hPa NE 8.4 km/h 13 km/h 65.7% 0.0 mm
17:39 16.8 °C 10.6 °C 1018.8 hPa NE 8.5 km/h 13 km/h 66.6% 0.0 mm
17:44 16.8 °C 10.6 °C 1018.8 hPa NE 8.7 km/h 13.7 km/h 67.1% 0.0 mm
17:49 16.7 °C 10.8 °C 1018.8 hPa NE 8.7 km/h 11.9 km/h 68% 0.0 mm
17:54 16.6 °C 10.7 °C 1018.9 hPa NE 8.7 km/h 11.1 km/h 68.4% 0.0 mm
17:59 16.4 °C 10.7 °C 1018.9 hPa NE 8.6 km/h 11.9 km/h 69% 0.0 mm
18:04 16.4 °C 10.7 °C 1018.9 hPa NE 8.4 km/h 11.1 km/h 69% 0.0 mm
18:09 16.3 °C 10.8 °C 1019.1 hPa NE 7.8 km/h 9.5 km/h 69.6% 0.0 mm
18:14 16.2 °C 10.8 °C 1019.1 hPa NE 6.4 km/h 9.3 km/h 70% 0.0 mm
18:19 16.2 °C 10.7 °C 1019.1 hPa NE 6.2 km/h 7.6 km/h 70% 0.0 mm
18:24 16.2 °C 10.8 °C 1019.3 hPa NE 5.8 km/h 7.4 km/h 70.5% 0.0 mm
18:29 16.1 °C 10.8 °C 1019.3 hPa NNE 5.5 km/h 7.6 km/h 71% 0.0 mm
18:34 16.1 °C 10.8 °C 1019.3 hPa NNE 4.7 km/h 7.4 km/h 71% 0.0 mm
18:39 16 °C 10.8 °C 1019.3 hPa NNE 4.4 km/h 5.8 km/h 71% 0.0 mm
18:44 16 °C 10.7 °C 1019.2 hPa NNE 3.9 km/h 5.6 km/h 71% 0.0 mm
18:49 15.9 °C 10.8 °C 1019.2 hPa NNE 3.7 km/h 5.6 km/h 71.9% 0.0 mm
18:54 15.9 °C 10.8 °C 1019.2 hPa NNE 3.2 km/h 5.8 km/h 72% 0.0 mm
18:59 15.9 °C 10.8 °C 1019.3 hPa NNE 3.4 km/h 7.4 km/h 72% 0.0 mm
19:04 15.9 °C 10.8 °C 1019.3 hPa NNE 3.9 km/h 5.8 km/h 72% 0.0 mm
19:09 15.8 °C 10.8 °C 1019.4 hPa NNE 3.9 km/h 5.8 km/h 72% 0.0 mm
19:14 15.7 °C 10.7 °C 1019.4 hPa NNE 3.9 km/h 5.8 km/h 72% 0.0 mm
19:19 15.7 °C 10.7 °C 1019.4 hPa NNE 3.9 km/h 7.4 km/h 72.5% 0.0 mm
19:24 15.5 °C 10.7 °C 1019.6 hPa NNE 3.9 km/h 7.4 km/h 73% 0.0 mm
19:29 15.4 °C 10.6 °C 1019.6 hPa NNE 4.1 km/h 7.4 km/h 73% 0.0 mm
19:34 15.4 °C 10.7 °C 1019.6 hPa NNE 4.7 km/h 7.4 km/h 73.8% 0.0 mm
19:39 15.4 °C 10.8 °C 1019.7 hPa NE 4.7 km/h 7.4 km/h 74% 0.0 mm
19:44 15.3 °C 10.7 °C 1019.7 hPa NE 4.7 km/h 7.6 km/h 74% 0.0 mm
19:49 15.3 °C 10.7 °C 1019.7 hPa NE 4.7 km/h 7.4 km/h 74% 0.0 mm
19:54 15.2 °C 10.6 °C 1019.9 hPa NE 4.7 km/h 5.6 km/h 74% 0.0 mm
19:59 15.2 °C 10.7 °C 1019.9 hPa NE 4.2 km/h 5.6 km/h 74.5% 0.0 mm
20:04 15.2 °C 10.8 °C 1019.9 hPa NE 3.2 km/h 4.7 km/h 75% 0.0 mm
20:09 15.2 °C 10.8 °C 1020.0 hPa NE 3.1 km/h 3.9 km/h 75% 0.0 mm
20:14 15.2 °C 10.8 °C 1020.0 hPa NE 2.9 km/h 3.9 km/h 75% 0.0 mm
20:19 15.2 °C 10.8 °C 1020.0 hPa NE 2.9 km/h 3.9 km/h 75% 0.0 mm
20:24 15.1 °C 10.7 °C 1020.1 hPa NE 2.9 km/h 3.9 km/h 75% 0.0 mm
20:29 15.1 °C 10.7 °C 1020.1 hPa NE 2.9 km/h 4.7 km/h 75% 0.0 mm
20:34 15.1 °C 10.7 °C 1020.1 hPa NE 2.9 km/h 4.7 km/h 75% 0.0 mm
20:39 15 °C 10.6 °C 1020.2 hPa NE 2.9 km/h 5.6 km/h 75.2% 0.0 mm
20:44 14.9 °C 10.7 °C 1020.2 hPa NE 2.9 km/h 5.6 km/h 76% 0.0 mm
20:49 14.8 °C 10.7 °C 1020.2 hPa NE 2.9 km/h 4.7 km/h 76% 0.0 mm
20:54 14.8 °C 10.6 °C 1020.2 hPa NE 2.9 km/h 4.7 km/h 76% 0.0 mm
20:59 14.8 °C 10.6 °C 1020.2 hPa NE 3 km/h 4.7 km/h 76.2% 0.0 mm
21:04 14.7 °C 10.7 °C 1020.2 hPa NE 3.2 km/h 3.9 km/h 77% 0.0 mm
21:09 14.7 °C 10.7 °C 1020.4 hPa NE 3.1 km/h 5.6 km/h 77% 0.0 mm
21:14 14.6 °C 10.6 °C 1020.4 hPa NE 2.9 km/h 4.7 km/h 77% 0.0 mm
21:19 14.5 °C 10.5 °C 1020.4 hPa NE 2 km/h   77% 0.0 mm
21:24 14.4 °C 10.5 °C 1020.5 hPa Calm     77.2% 0.0 mm
21:29 14.4 °C 10.6 °C 1020.5 hPa Calm     78% 0.0 mm
21:34 14.3 °C 10.5 °C 1020.5 hPa Calm   3.2 km/h 78% 0.0 mm
21:39 14.3 °C 10.5 °C 1020.6 hPa NE 0.7 km/h 5.6 km/h 78% 0.0 mm
21:44 14.3 °C 10.5 °C 1020.6 hPa NE 2.3 km/h 3.9 km/h 78% 0.0 mm
21:49 14.2 °C 10.4 °C 1020.6 hPa NE 2.5 km/h 4.7 km/h 78% 0.0 mm
21:54 14.1 °C 10.4 °C 1020.8 hPa NE 2.9 km/h 3.9 km/h 78.1% 0.0 mm
21:59 14 °C 10.4 °C 1020.8 hPa NE 2.7 km/h 3.7 km/h 79% 0.0 mm
22:04 13.9 °C 10.3 °C 1020.8 hPa NE 2.3 km/h 3.7 km/h 79% 0.0 mm
22:09 13.8 °C 10.2 °C 1020.9 hPa NE 1.6 km/h   79% 0.0 mm
22:14 13.8 °C 10.4 °C 1020.9 hPa Calm     79.9% 0.0 mm
22:19 13.7 °C 10.3 °C 1020.9 hPa Calm     80% 0.0 mm
22:24 13.7 °C 10.3 °C 1021.1 hPa Calm     80% 0.0 mm
22:29 13.7 °C 10.5 °C 1021.1 hPa Calm     81% 0.0 mm
22:34 13.7 °C 10.5 °C 1021.1 hPa Calm     81% 0.0 mm
22:39 13.7 °C 10.5 °C 1021.2 hPa Calm     81% 0.0 mm
22:44 13.7 °C 10.5 °C 1021.2 hPa Calm   3.9 km/h 81% 0.0 mm
22:49 13.7 °C 10.5 °C 1021.2 hPa Calm   3.7 km/h 81% 0.0 mm
22:54 13.7 °C 10.5 °C 1021.5 hPa Calm     81% 0.0 mm
22:59 13.7 °C 10.5 °C 1021.5 hPa Calm   3.9 km/h 81% 0.0 mm
23:04 13.6 °C 10.4 °C 1021.5 hPa Calm   4.7 km/h 81% 0.0 mm
23:09 13.4 °C 10.2 °C 1021.5 hPa NE 0.9 km/h 5.6 km/h 81% 0.0 mm
23:14 13.3 °C 10.2 °C 1021.4 hPa NE 2.9 km/h 4.7 km/h 81% 0.0 mm
23:19 13.3 °C 10.3 °C 1021.4 hPa NE 2.9 km/h 5.6 km/h 82% 0.0 mm
23:24 13.2 °C 10.2 °C 1021.5 hPa NE 2.9 km/h 3.7 km/h 82% 0.0 mm
23:29 13.2 °C 10.2 °C 1021.5 hPa NE 2 km/h   82% 0.0 mm
23:34 13.2 °C 10.2 °C 1021.5 hPa Calm   5 km/h 82.3% 0.0 mm
23:39 13.2 °C 10.3 °C 1021.5 hPa SE 0.9 km/h 8.4 km/h 82.8% 0.0 mm
23:44 13.2 °C 10.2 °C 1021.5 hPa SSE 2.9 km/h 7.4 km/h 82.2% 0.0 mm
23:49 13.1 °C 10.3 °C 1021.5 hPa SE 3.6 km/h 7.6 km/h 83% 0.0 mm
23:54 13.1 °C 10.3 °C 1021.5 hPa SE 5 km/h 7.4 km/h 83% 0.0 mm
23:59 13.1 °C 10.3 °C 1021.5 hPa SSE 4.6 km/h 8.4 km/h 83% 0.0 mm
Murcia-Puente Tocinos, Espa?a
Compliments of Weather Underground - 3 mb

La estación de MeteoMurcia.com, publica sus datos en los siguientes proyectos:

Weather Underground PWS IMURCIAP2 Meteoclimatic www.awekas.at

W3Counter
Web Analytics